Time;durP1;ratioP1;P1;durP2;ratioP2;P2;SDS_P1;SDS_P2;PMS_P1;PMS_P2;Temp;Humidity;BMP_temperature;BMP_pressure;BME280_temperature;BME280_humidity;BME280_pressure;Samples;Min_cycle;Max_cycle;Signal;HPM_P1;HPM_P2
2021/11/17 02:27:10;;;;;;;9.57;5.60;;;6.80;96.80;;;6.97;68.83;97973.38;5026882;28;20054;-40
2021/11/17 02:29:53;;;;;;;9.80;5.53;;;6.80;96.50;;;6.97;68.86;97970.72;5028048;28;20363;-40
2021/11/17 02:32:49;;;;;;;11.73;6.17;;;6.80;96.50;;;6.97;68.67;97968.06;5027168;28;20057;-40
2021/11/17 02:35:33;;;;;;;9.97;6.37;;;6.80;96.80;;;6.99;68.48;97966.13;5026693;28;20234;-39
2021/11/17 02:38:22;;;;;;;11.67;6.10;;;6.80;96.70;;;7.02;68.77;97970.34;5027861;28;20049;-39
2021/11/17 03:08:00;;;;;;;13.33;7.43;;;6.70;98.10;;;6.94;69.13;97973.66;5006278;28;20222;-40
2021/11/17 03:10:51;;;;;;;12.67;8.13;;;6.70;98.00;;;6.97;68.80;97962.78;5007979;28;20060;-40
2021/11/17 03:13:52;;;;;;;13.40;7.17;;;6.80;98.50;;;6.99;68.95;97974.06;5003118;28;20062;-40
2021/11/17 03:16:41;;;;;;;12.67;7.93;;;6.80;97.90;;;7.01;69.08;97969.50;5006914;28;20068;-40
2021/11/17 03:19:38;;;;;;;13.63;7.37;;;6.80;97.80;;;7.03;69.22;97964.06;5006497;28;20252;-40
2021/11/17 03:22:44;;;;;;;13.30;7.60;;;6.80;97.70;;;7.00;68.73;97964.31;5007793;28;20042;-40
2021/11/17 03:25:39;;;;;;;14.50;7.87;;;6.70;97.80;;;6.97;69.13;97952.19;5004045;28;20260;-40
2021/11/17 03:28:42;;;;;;;11.37;7.07;;;6.70;98.00;;;6.97;69.11;97959.31;5006137;28;20065;-40
2021/11/17 04:03:13;;;;;;;14.93;8.77;;;6.80;98.70;;;6.93;69.18;97979.06;5006091;28;20046;-40
2021/11/17 04:05:43;;;;;;;17.63;8.70;;;6.70;98.70;;;6.92;69.04;97983.53;5003997;28;20057;-40
2021/11/17 04:08:38;;;;;;;13.93;7.40;;;6.70;98.70;;;6.94;69.13;97973.66;5007374;28;20080;-40
2021/11/17 04:11:53;;;;;;;16.67;8.33;;;6.80;98.80;;;6.92;69.19;97980.88;5006397;28;20053;-40
2021/11/17 04:14:59;;;;;;;14.18;7.13;;;6.80;98.60;;;6.94;69.01;97978.06;5005233;28;20347;-40
2021/11/17 04:18:02;;;;;;;15.97;8.53;;;6.70;98.80;;;6.95;69.75;97977.13;5004922;28;20058;-40
2021/11/17 04:20:39;;;;;;;12.87;7.57;;;6.80;98.60;;;6.93;69.23;97977.25;5006655;28;20341;-40
2021/11/17 04:23:48;;;;;;;13.63;8.43;;;6.70;98.70;;;6.92;69.44;97980.88;5006595;28;20056;-40
2021/11/17 04:26:43;;;;;;;24.43;14.93;;;6.70;98.80;;;6.89;69.88;97984.59;5005021;28;20045;-40
2021/11/17 04:54:30;;;;;;;13.90;7.87;;;6.50;99.20;;;6.60;69.69;97981.75;5025012;28;20235;-40
2021/11/17 04:57:20;;;;;;;13.70;6.60;;;6.40;99.50;;;6.58;69.65;97991.63;5024989;28;20057;-40
2021/11/17 05:00:27;;;;;;;12.17;6.23;;;6.40;99.50;;;6.56;69.53;97992.75;5026048;28;20053;-40
2021/11/17 05:03:38;;;;;;;11.70;6.33;;;6.40;99.10;;;6.58;69.67;97994.28;5026079;28;20344;-40
2021/11/17 05:06:36;;;;;;;11.73;5.87;;;6.40;98.80;;;6.50;70.30;97992.28;5026065;28;20049;-40
2021/11/17 05:09:16;;;;;;;10.63;5.63;;;6.30;99.20;;;6.48;70.06;97990.72;5023579;28;20045;-40
2021/11/17 05:12:08;;;;;;;10.27;5.57;;;6.30;99.10;;;6.44;70.29;97992.78;5025022;28;20049;-40
2021/11/17 05:14:52;;;;;;;12.30;5.87;;;6.30;99.40;;;6.37;70.59;97988.97;5025692;28;20049;-40
2021/11/17 05:17:40;;;;;;;11.30;4.90;;;6.20;99.90;;;6.31;70.25;98003.53;5026521;28;20061;-41
2021/11/17 05:20:26;;;;;;;10.47;5.53;;;6.10;99.90;;;6.28;70.39;97995.00;5023349;28;20063;-40
2021/11/17 05:23:37;;;;;;;11.53;6.87;;;6.00;99.90;;;6.27;70.58;97998.63;5026715;28;20063;-41
2021/11/17 05:26:27;;;;;;;9.57;5.20;;;6.00;99.90;;;6.27;71.01;97995.97;5028440;28;20268;-40
2021/11/17 05:29:06;;;;;;;13.67;6.00;;;6.10;99.90;;;6.30;70.65;97998.34;5029483;28;20045;-40
2021/11/17 05:32:10;;;;;;;10.87;4.80;;;6.10;99.90;;;6.37;70.95;98006.63;5028569;28;20049;-40
2021/11/17 05:34:38;;;;;;;10.70;5.67;;;6.20;99.90;;;6.39;70.51;98004.69;5030057;28;20453;-40
2021/11/17 05:37:17;;;;;;;13.33;5.97;;;6.20;99.90;;;6.43;70.34;98009.59;5029401;28;20298;-40
2021/11/17 05:40:09;;;;;;;9.03;5.20;;;6.30;99.90;;;6.43;70.22;98014.06;5029203;28;20057;-41
2021/11/17 05:43:04;;;;;;;10.90;5.50;;;6.30;99.90;;;6.43;70.93;98020.19;5028709;28;20049;-40
2021/11/17 05:46:05;;;;;;;10.77;5.93;;;6.30;99.90;;;6.38;70.69;98017.09;5029363;28;20480;-40
2021/11/17 05:48:48;;;;;;;10.20;5.37;;;6.20;99.70;;;6.43;70.84;98036.06;5029460;28;20045;-40
2021/11/17 05:51:54;;;;;;;9.70;5.57;;;6.20;99.80;;;6.37;70.26;98033.09;5028236;28;20057;-40
2021/11/17 05:55:06;;;;;;;11.93;6.17;;;6.20;99.20;;;6.35;70.14;98046.41;5028785;28;20060;-41
2021/11/17 05:58:05;;;;;;;12.03;5.93;;;6.20;99.90;;;6.34;70.36;98046.53;5029044;28;20049;-40
2021/11/17 06:00:42;;;;;;;10.93;5.73;;;6.10;99.90;;;6.34;70.32;98044.75;5029289;28;20240;-40
2021/11/17 06:03:40;;;;;;;14.90;6.63;;;6.10;99.90;;;6.28;70.31;98043.44;5027597;28;20053;-41
2021/11/17 06:06:07;;;;;;;11.40;5.03;;;6.10;99.90;;;6.27;70.49;98047.03;5007749;28;20071;-41
2021/11/17 06:08:35;;;;;;;10.23;5.93;;;6.10;99.70;;;6.21;70.48;98044.06;5028234;28;20374;-40
2021/11/17 06:11:04;;;;;;;10.17;5.70;;;6.00;99.60;;;6.24;70.19;98041.16;5027717;28;20060;-41
2021/11/17 06:13:33;;;;;;;10.40;5.87;;;6.10;99.90;;;6.24;70.91;98041.16;5026074;28;20061;-40
2021/11/17 06:16:02;;;;;;;10.57;5.53;;;6.00;99.50;;;6.21;70.98;98044.91;5028856;28;20057;-41
2021/11/17 06:18:33;;;;;;;10.20;5.80;;;6.00;99.50;;;6.22;70.77;98051.03;5027445;28;20264;-41
2021/11/17 06:21:07;;;;;;;8.50;5.50;;;6.10;99.50;;;6.19;70.75;98052.13;5027669;28;20089;-41
2021/11/17 06:24:02;;;;;;;10.50;5.60;;;6.00;99.40;;;6.24;70.42;98044.66;5025843;28;20053;-41
2021/11/17 06:26:37;;;;;;;11.40;5.53;;;6.10;99.90;;;6.30;70.72;98049.44;5028316;28;20239;-40
2021/11/17 06:29:23;;;;;;;7.40;4.33;;;6.10;99.30;;;6.33;70.65;98047.53;5029000;28;20049;-41
2021/11/17 06:31:54;;;;;;;8.37;5.20;;;6.20;99.50;;;6.27;70.88;98052.34;5028919;28;20111;-39
2021/11/17 06:34:43;;;;;;;8.57;5.70;;;6.10;98.80;;;6.11;70.27;98047.44;5025743;28;20363;-39
2021/11/17 06:37:23;;;;;;;10.50;5.97;;;5.90;99.50;;;6.18;70.91;98054.88;5028441;28;20069;-39
2021/11/17 06:39:55;;;;;;;10.60;5.50;;;6.00;99.90;;;6.22;70.37;98058.94;5027322;28;20056;-40
2021/11/17 06:42:38;;;;;;;12.07;6.57;;;6.10;99.80;;;6.27;71.07;98068.19;5026802;28;20057;-40
2021/11/17 06:45:18;;;;;;;10.83;6.60;;;6.10;99.30;;;6.37;70.68;98063.00;5026876;28;20256;-40
2021/11/17 06:47:46;;;;;;;11.03;5.87;;;6.20;99.20;;;6.41;70.59;98066.25;5027981;28;20050;-40
2021/11/17 06:50:17;;;;;;;12.10;5.27;;;6.20;98.60;;;6.42;70.59;98065.28;5028042;28;20071;-40
2021/11/17 06:52:46;;;;;;;10.90;6.23;;;6.30;98.50;;;6.46;70.25;98066.72;5027682;28;20064;-40
2021/11/17 06:55:15;;;;;;;9.80;5.33;;;6.30;98.50;;;6.51;70.67;98067.16;5027971;28;20196;-40
2021/11/17 06:57:42;;;;;;;29.63;18.57;;;6.40;98.30;;;6.54;70.64;98072.22;5028100;28;20053;-39
2021/11/17 07:00:16;;;;;;;14.53;8.27;;;6.40;98.00;;;6.53;69.84;98073.16;5027198;28;20072;-39
2021/11/17 07:02:44;;;;;;;14.07;7.32;;;6.40;97.80;;;6.56;70.20;98082.69;5028366;28;20053;-39
2021/11/17 07:05:13;;;;;;;8.80;5.23;;;6.40;97.80;;;6.55;70.04;98084.47;5028409;28;20754;-39
2021/11/17 07:07:42;;;;;;;10.60;5.37;;;6.40;97.50;;;6.54;69.64;98092.53;5026272;28;20324;-39
2021/11/17 07:10:12;;;;;;;9.27;5.30;;;6.40;97.30;;;6.52;69.72;98097.13;5027434;28;20049;-39
2021/11/17 07:12:41;;;;;;;12.07;6.20;;;6.40;97.20;;;6.51;69.80;98098.91;5027830;28;20047;-40
2021/11/17 07:15:11;;;;;;;10.47;5.80;;;6.40;97.20;;;6.49;70.03;98103.47;5026907;28;20064;-40
2021/11/17 07:17:39;;;;;;;9.30;4.90;;;6.40;97.30;;;6.53;70.10;98112.00;5026841;28;20063;-40
2021/11/17 07:20:10;;;;;;;7.93;4.57;;;6.40;97.20;;;6.56;69.84;98114.44;5026432;28;20057;-40
2021/11/17 07:22:40;;;;;;;8.00;4.53;;;6.50;96.90;;;6.55;69.78;98124.16;5027981;28;20348;-40
2021/11/17 07:25:11;;;;;;;9.07;6.20;;;6.40;96.60;;;6.57;70.13;98124.03;5025565;28;20033;-40
2021/11/17 07:27:40;;;;;;;8.40;5.47;;;6.40;97.10;;;6.58;70.13;98121.25;5027231;28;20052;-41
2021/11/17 07:30:11;;;;;;;10.87;6.37;;;6.50;97.20;;;6.62;69.85;98124.50;5025935;28;20063;-41
2021/11/17 07:32:40;;;;;;;8.37;4.70;;;6.50;97.00;;;6.64;69.87;98127.88;5026835;28;20057;-40
2021/11/17 07:35:09;;;;;;;9.07;4.73;;;6.50;96.80;;;6.64;69.41;98130.50;5026569;28;20066;-41
2021/11/17 07:37:37;;;;;;;8.30;4.40;;;6.50;96.20;;;6.59;69.56;98130.91;5025463;28;20052;-41
2021/11/17 07:40:08;;;;;;;9.87;5.13;;;6.50;96.40;;;6.39;69.21;98132.47;5026781;28;20064;-41
2021/11/17 07:42:36;;;;;;;7.10;4.60;;;6.30;95.70;;;6.29;70.10;98144.75;5028079;28;20045;-40
2021/11/17 07:45:08;;;;;;;6.23;3.53;;;6.10;97.30;;;6.20;69.58;98148.13;5025176;28;20243;-41
2021/11/17 07:47:36;;;;;;;5.53;3.50;;;6.00;97.50;;;6.08;69.80;98152.59;5026046;28;20052;-41
2021/11/17 07:50:06;;;;;;;5.17;3.50;;;5.90;97.50;;;6.01;70.17;98154.88;5025280;28;20048;-41
2021/11/17 07:52:36;;;;;;;6.43;3.87;;;5.80;98.10;;;5.94;69.92;98148.34;5028397;28;20059;-41
2021/11/17 07:55:06;;;;;;;4.67;3.17;;;5.80;99.00;;;5.83;70.44;98159.75;5025650;28;20053;-40
2021/11/17 07:57:37;;;;;;;5.77;3.13;;;5.70;99.30;;;5.73;71.55;98153.50;5026311;28;20061;-40
2021/11/17 08:00:12;;;;;;;5.37;3.03;;;5.60;99.90;;;5.75;71.75;98151.56;5024645;28;20061;-40
2021/11/17 08:02:41;;;;;;;7.83;4.37;;;5.60;99.90;;;5.74;70.54;98152.56;5025041;28;20051;-40
2021/11/17 08:05:10;;;;;;;6.53;3.80;;;5.60;99.90;;;5.76;71.50;98158.56;5025062;28;20231;-41
2021/11/17 08:07:40;;;;;;;7.17;3.87;;;5.60;99.90;;;5.72;71.58;98162.41;5025275;28;20080;-40
2021/11/17 08:10:17;;;;;;;4.97;3.60;;;5.60;99.90;;;5.73;70.99;98167.53;5018918;28;20694;-40
2021/11/17 08:12:45;;;;;;;7.27;4.30;;;5.60;99.90;;;5.76;71.05;98169.13;5023369;28;20080;-40
2021/11/17 08:15:14;;;;;;;6.43;3.03;;;5.70;99.90;;;5.65;71.95;98172.56;5026150;28;20057;-41
2021/11/17 08:17:42;;;;;;;7.57;3.90;;;5.60;99.90;;;5.65;72.19;98169.94;5024586;28;20061;-41
2021/11/17 08:20:16;;;;;;;7.03;3.83;;;5.60;99.90;;;5.63;72.53;98169.22;5024520;28;20083;-40
2021/11/17 08:22:50;;;;;;;;;;;5.60;99.90;;;5.69;71.79;98176.66;5027387;28;20071;-40
2021/11/17 08:25:21;;;;;;;5.60;3.20;;;5.70;99.90;;;5.75;72.51;98178.00;5025002;28;19917;-40
2021/11/17 08:27:52;;;;;;;7.93;3.83;;;5.70;99.90;;;5.64;72.25;98186.75;5024645;28;20067;-41
2021/11/17 08:30:23;;;;;;;7.53;2.90;;;5.60;99.90;;;5.58;72.21;98184.56;5026109;28;20049;-40
2021/11/17 08:32:52;;;;;;;4.90;2.87;;;5.60;99.90;;;5.59;72.85;98182.78;5027168;28;20221;-39
2021/11/17 08:35:25;;;;;;;6.10;3.17;;;5.50;99.90;;;5.69;71.82;98192.50;5030820;28;20047;-40
2021/11/17 08:37:55;;;;;;;7.82;3.10;;;5.60;99.90;;;5.60;71.22;98189.72;5045505;28;20053;-40
2021/11/17 08:40:30;;;;;;;3.23;2.33;;;5.60;99.80;;;5.53;71.55;98186.72;5045298;28;20052;-40
2021/11/17 08:42:59;;;;;;;5.23;3.07;;;5.50;99.70;;;5.58;72.12;98189.84;5044747;28;20565;-40
2021/11/17 08:45:27;;;;;;;4.50;2.73;;;5.50;99.90;;;5.59;71.90;98185.44;5045520;28;20229;-40
2021/11/17 08:47:57;;;;;;;6.40;3.03;;;5.50;99.90;;;5.58;71.50;98179.28;5044868;28;20063;-41
2021/11/17 08:50:29;;;;;;;5.70;2.57;;;5.50;99.90;;;5.59;70.79;98190.72;5044360;28;20045;-40
2021/11/17 08:52:58;;;;;;;3.90;2.60;;;5.50;99.50;;;5.58;71.89;98194.28;5043962;28;20337;-40
2021/11/17 08:55:28;;;;;;;5.30;2.80;;;5.50;99.70;;;5.51;71.52;98189.47;5040443;28;20045;-40
2021/11/17 08:58:02;;;;;;;7.27;3.60;;;5.40;99.90;;;5.51;71.39;98196.56;5052193;28;20340;-40
2021/11/17 09:00:30;;;;;;;6.33;3.20;;;5.40;99.90;;;5.56;71.31;98193.56;5049867;28;20070;-40
2021/11/17 09:03:02;;;;;;;6.40;3.30;;;5.50;99.90;;;5.62;71.14;98186.03;5053022;28;20047;-40
2021/11/17 09:05:38;;;;;;;6.30;3.90;;;5.50;99.90;;;5.75;72.18;98191.22;5052634;28;20048;-41
2021/11/17 09:08:06;;;;;;;7.60;3.70;;;5.70;99.90;;;5.84;71.47;98195.78;5055970;28;20044;-40
2021/11/17 09:10:40;;;;;;;5.97;4.60;;;5.80;99.90;;;5.95;71.78;98197.63;5036255;28;20057;-40
2021/11/17 09:13:08;;;;;;;6.95;3.67;;;5.90;99.20;;;6.03;70.95;98197.03;5032854;28;20049;-41
2021/11/17 09:15:41;;;;;;;6.87;3.13;;;6.00;99.00;;;6.09;70.71;98193.94;5035132;28;20048;-41
2021/11/17 09:18:18;;;;;;;5.07;2.97;;;6.00;98.50;;;6.08;70.88;98200.16;5027622;28;20064;-40
2021/11/17 09:20:47;;;;;;;5.13;2.53;;;6.00;98.00;;;5.98;70.83;98210.63;5025060;28;20049;-41
2021/11/17 09:23:17;;;;;;;6.83;3.10;;;5.90;97.00;;;6.02;70.39;98208.56;5025689;28;20057;-40
2021/11/17 09:25:46;;;;;;;5.93;3.10;;;5.90;98.40;;;6.07;70.02;98201.16;5023552;28;20358;-41
2021/11/17 09:28:21;;;;;;;4.75;2.78;;;6.00;97.80;;;6.11;70.66;98213.16;5025763;28;20041;-40
2021/11/17 09:30:51;;;;;;;4.13;2.57;;;6.10;97.80;;;6.11;70.18;98213.16;5024257;28;20059;-40
2021/11/17 09:33:23;;;;;;;3.77;2.57;;;6.20;97.10;;;6.12;70.06;98214.81;5025647;28;20049;-40
2021/11/17 09:35:52;;;;;;;4.13;2.10;;;6.20;96.70;;;6.21;69.92;98219.41;5025282;28;20348;-40
2021/11/17 09:38:21;;;;;;;4.27;1.90;;;6.30;97.10;;;6.28;70.49;98217.09;5023957;28;20084;-39
2021/11/17 09:41:10;;;;;;;3.30;2.00;;;6.30;96.30;;;6.22;69.10;98220.25;5023764;28;20067;-40
2021/11/17 09:43:49;;;;;;;3.50;2.30;;;6.30;95.30;;;6.29;69.98;98227.56;5024380;28;20061;-40
2021/11/17 09:46:19;;;;;;;3.43;2.40;;;6.30;95.80;;;6.30;70.15;98231.91;5023219;28;20046;-40
2021/11/17 09:48:53;;;;;;;4.07;2.23;;;6.30;95.70;;;6.31;69.45;98238.88;5025147;28;20059;-40
2021/11/17 09:51:34;;;;;;;6.10;3.42;;;6.30;95.60;;;6.29;68.96;98242.59;5025222;28;20057;-40
2021/11/17 09:54:32;;;;;;;6.63;3.90;;;6.30;94.90;;;6.26;68.43;98248.13;5025794;28;20047;-40
2021/11/17 09:57:14;;;;;;;2.97;1.90;;;6.30;94.90;;;6.31;69.26;98246.81;5025065;28;20053;-40
2021/11/17 09:59:56;;;;;;;4.27;2.13;;;6.30;94.90;;;6.27;68.89;98263.88;5024253;28;20336;-40
2021/11/17 10:02:48;;;;;;;3.37;1.90;;;6.20;94.10;;;6.27;68.83;98257.75;5024148;28;20075;-40
2021/11/17 10:05:28;;;;;;;3.47;1.80;;;6.20;94.90;;;6.27;69.31;98260.41;5024008;28;20058;-40
2021/11/17 10:09:14;;;;;;;5.60;2.43;;;6.20;94.60;;;6.28;69.19;98256.78;5023692;28;20048;-40
2021/11/17 10:14:12;;;;;;;6.30;2.90;;;6.20;94.20;;;6.31;69.38;98244.16;5027322;28;20050;-39
2021/11/17 10:16:40;;;;;;;;;;;6.30;95.10;;;6.33;69.07;98246.69;5027696;28;20059;-39
2021/11/17 10:19:22;;;;;;;3.70;2.30;;;6.30;93.50;;;6.39;67.70;98245.38;5025750;28;19931;-39
2021/11/17 10:22:09;;;;;;;3.20;2.07;;;6.30;92.70;;;6.41;68.20;98240.81;5026732;28;20049;-39
2021/11/17 10:24:51;;;;;;;3.83;2.23;;;6.40;93.90;;;6.47;68.52;98246.44;5026468;28;20063;-41
2021/11/17 10:27:45;;;;;;;3.37;2.70;;;6.40;93.60;;;6.52;68.23;98246.09;5024780;28;20041;-40
2021/11/17 10:30:28;;;;;;;2.78;1.90;;;6.60;93.40;;;6.60;68.36;98248.13;5024265;28;20279;-41
2021/11/17 10:33:16;;;;;;;3.60;1.80;;;6.60;93.10;;;6.59;67.97;98242.00;5026260;28;20060;-40
2021/11/17 10:36:07;;;;;;;2.47;1.53;;;6.60;92.10;;;6.53;67.08;98245.13;5027203;28;20598;-40
2021/11/17 10:38:48;;;;;;;2.23;1.50;;;6.60;90.40;;;6.47;67.61;98238.50;5029263;28;20050;-41
2021/11/17 10:41:24;;;;;;;4.07;1.87;;;6.40;91.80;;;6.52;67.26;98237.31;5028106;28;20344;-40
2021/11/17 10:43:58;;;;;;;4.07;1.90;;;6.40;92.30;;;6.52;67.21;98235.50;5027894;28;20251;-40
2021/11/17 10:46:42;;;;;;;2.72;1.92;;;6.40;92.30;;;6.51;67.58;98231.16;5027420;28;20055;-40
2021/11/17 10:49:16;;;;;;;;;;;6.40;91.40;;;6.48;66.85;98234.06;5028659;28;20053;-40
2021/11/17 10:51:58;;;;;;;1.80;1.23;;;6.40;89.60;;;6.53;66.76;98236.34;5026783;28;19924;-40
2021/11/17 10:54:29;;;;;;;3.10;1.40;;;6.50;91.10;;;6.51;67.04;98233.81;5026218;28;20041;-40
2021/11/17 10:57:02;;;;;;;1.90;1.20;;;6.40;90.70;;;6.54;67.25;98224.81;5026779;28;20111;-41
2021/11/17 10:59:32;;;;;;;3.27;1.60;;;6.50;91.40;;;6.57;66.89;98228.06;5027544;28;20053;-40
2021/11/17 11:02:02;;;;;;;2.93;1.17;;;6.50;90.20;;;6.56;66.75;98233.47;5027138;28;20055;-40
2021/11/17 11:05:04;;;;;;;2.07;1.57;;;6.50;90.80;;;6.59;66.87;98234.06;5009527;28;20057;-40
2021/11/17 11:07:45;;;;;;;3.00;1.70;;;6.60;90.00;;;6.39;66.59;98225.03;5026562;28;20045;-40
2021/11/17 11:10:36;;;;;;;3.60;2.00;;;6.40;90.20;;;6.48;66.33;98237.56;5025941;28;20364;-40
2021/11/17 11:13:10;;;;;;;2.20;1.57;;;6.50;90.30;;;6.47;66.23;98235.84;5010913;28;20053;-40
2021/11/17 11:15:49;;;;;;;1.92;1.30;;;6.50;89.30;;;6.34;66.48;98231.66;5026444;28;20371;-40
2021/11/17 11:18:19;;;;;;;3.30;1.60;;;6.30;90.00;;;6.35;66.11;98236.00;5024774;28;20049;-40
2021/11/17 11:20:54;;;;;;;2.07;1.40;;;6.30;90.30;;;6.40;66.05;98239.13;5026022;28;20057;-40
2021/11/17 11:23:28;;;;;;;2.20;1.20;;;6.40;90.50;;;6.46;66.60;98246.59;5028172;28;20052;-40
2021/11/17 11:26:15;;;;;;;1.50;1.25;;;6.50;90.10;;;6.35;65.86;98243.94;5027974;28;20053;-40
2021/11/17 11:28:45;;;;;;;2.03;1.30;;;6.40;88.80;;;6.36;66.23;98245.59;5025932;28;20060;-40
2021/11/17 11:31:13;;;;;;;3.30;1.50;;;6.30;89.90;;;6.43;66.44;98241.53;5026625;28;20585;-40
2021/11/17 11:33:48;;;;;;;3.33;1.53;;;6.40;90.30;;;6.45;66.33;98239.59;5026409;28;20256;-41
2021/11/17 11:36:22;;;;;;;1.97;1.30;;;6.40;90.20;;;6.39;66.06;98238.28;5026944;28;20057;-40
2021/11/17 11:39:11;;;;;;;2.42;1.48;;;6.40;89.50;;;6.37;65.98;98242.00;5026616;28;20049;-40
2021/11/17 11:41:39;;;;;;;1.87;1.30;;;6.40;90.40;;;6.36;65.68;98243.81;5026258;28;20049;-40
2021/11/17 11:44:20;;;;;;;1.60;1.50;;;6.40;89.50;;;6.39;66.13;98238.28;5025489;28;20058;-39
2021/11/17 11:47:08;;;;;;;4.33;1.53;;;6.40;89.90;;;6.42;66.40;98239.84;5026296;28;20055;-40
2021/11/17 11:49:48;;;;;;;1.60;1.13;;;6.40;90.20;;;6.37;65.91;98245.47;5006268;28;20061;-40
2021/11/17 11:52:25;;;;;;;3.67;1.97;;;6.30;90.50;;;6.30;66.19;98239.84;5026840;28;20103;-40
2021/11/17 11:54:56;;;;;;;3.73;1.80;;;6.30;90.10;;;6.26;65.99;98250.75;5025113;28;20076;-40
2021/11/17 11:57:30;;;;;;;2.73;1.80;;;6.20;90.10;;;6.26;66.53;98248.97;5026238;28;20057;-39
2021/11/17 12:00:17;;;;;;;2.15;1.42;;;6.20;91.40;;;6.33;66.39;98240.56;5025870;28;20345;-39
2021/11/17 12:03:09;;;;;;;1.93;1.13;;;6.30;91.50;;;6.26;66.14;98240.19;5027455;28;20124;-40
2021/11/17 12:05:40;;;;;;;5.03;1.70;;;6.30;91.00;;;6.22;65.98;98250.19;5025836;28;20050;-40
2021/11/17 12:08:45;;;;;;;3.00;1.40;;;6.30;90.00;;;6.26;65.81;98254.28;5024667;28;20053;-40
2021/11/17 12:11:22;;;;;;;1.92;1.52;;;6.30;88.90;;;6.14;65.63;98239.34;5023797;28;20069;-39
2021/11/17 12:14:24;;;;;;;2.13;1.40;;;6.10;89.20;;;6.04;65.58;98249.78;5026221;28;20049;-40
2021/11/17 12:16:54;;;;;;;1.97;1.17;;;6.10;88.70;;;6.05;65.57;98243.56;5024264;28;20390;-40
2021/11/17 12:19:30;;;;;;;1.83;1.20;;;6.10;89.60;;;6.10;66.32;98244.00;5025529;28;20061;-39
2021/11/17 12:22:11;;;;;;;1.40;1.17;;;6.10;89.70;;;6.16;66.21;98247.16;5026285;28;20061;-40
2021/11/17 12:25:03;;;;;;;4.17;1.70;;;6.20;89.50;;;6.27;66.46;98241.88;5026301;28;20063;-41
2021/11/17 12:27:35;;;;;;;1.93;1.20;;;6.30;89.90;;;6.29;65.66;98238.16;5025936;28;20045;-40
2021/11/17 12:30:32;;;;;;;4.93;1.90;;;6.30;89.70;;;6.21;65.19;98247.66;5023272;28;20053;-40
2021/11/17 12:33:16;;;;;;;2.13;1.30;;;6.30;88.60;;;6.17;65.20;98256.78;5026776;28;20057;-40
2021/11/17 12:35:59;;;;;;;;;;;6.20;89.20;;;6.10;65.26;98244.00;5025587;28;20621;-40
2021/11/17 12:38:28;;;;;;;1.37;1.20;;;6.10;88.10;;;6.19;65.86;98245.13;5026361;28;19923;-40
2021/11/17 12:41:22;;;;;;;2.83;1.30;;;6.20;89.10;;;6.22;65.52;98236.09;5023545;28;20050;-40
2021/11/17 12:44:25;;;;;;;2.13;1.27;;;6.20;89.30;;;6.23;65.41;98235.16;5026140;28;20375;-40
2021/11/17 12:47:17;;;;;;;2.60;1.63;;;6.30;88.60;;;6.21;65.32;98237.91;5026292;28;20484;-40
2021/11/17 12:50:25;;;;;;;2.20;1.23;;;6.30;88.00;;;6.20;65.78;98238.03;5024841;28;20057;-41
2021/11/17 12:53:21;;;;;;;4.97;1.80;;;6.20;89.00;;;6.29;65.97;98240.78;5024116;28;20063;-40
2021/11/17 12:56:00;;;;;;;2.07;1.43;;;6.30;89.60;;;6.34;65.96;98236.94;5020448;28;20069;-40
2021/11/17 12:58:40;;;;;;;2.13;1.40;;;6.30;88.70;;;6.18;65.13;98247.88;5026479;28;20059;-40
2021/11/17 13:01:34;;;;;;;1.77;1.50;;;6.20;88.00;;;6.20;65.87;98241.50;5023679;28;20116;-40
2021/11/17 13:04:15;;;;;;;2.43;1.43;;;6.20;89.40;;;6.16;65.79;98226.84;5026025;28;20068;-40
2021/11/17 13:06:50;;;;;;;1.60;1.17;;;6.10;89.50;;;6.17;65.37;98238.28;5024512;28;20053;-39
2021/11/17 13:09:24;;;;;;;1.97;1.43;;;6.20;89.20;;;6.14;65.59;98234.06;5024355;28;20053;-40
2021/11/17 13:12:04;;;;;;;2.33;1.30;;;6.10;89.10;;;6.16;65.70;98242.72;5025528;28;20055;-40
2021/11/17 13:14:55;;;;;;;2.00;1.43;;;6.20;89.10;;;6.14;65.83;98243.78;5022704;28;20061;-40
2021/11/17 13:17:43;;;;;;;2.80;1.97;;;6.20;88.80;;;6.19;65.77;98239.84;5023731;28;20061;-40
2021/11/17 13:20:13;;;;;;;3.83;1.73;;;6.20;89.40;;;6.07;65.38;98240.78;5025664;28;20240;-40
2021/11/17 13:22:47;;;;;;;2.90;1.73;;;6.10;89.50;;;6.14;66.06;98239.34;5024871;28;20054;-40
2021/11/17 13:25:26;;;;;;;;;;;6.10;90.10;;;6.18;66.25;98242.59;5024217;28;20248;-40
2021/11/17 13:28:05;;;;;;;3.17;1.90;;;6.20;90.10;;;6.20;66.32;98238.03;5024510;28;19929;-40
2021/11/17 13:30:46;;;;;;;4.30;2.23;;;6.10;90.40;;;6.11;66.33;98243.06;5026245;28;20045;-40
2021/11/17 13:33:32;;;;;;;4.07;2.80;;;6.10;90.40;;;6.14;66.33;98244.63;5025321;28;20364;-39
2021/11/17 13:36:10;;;;;;;4.20;2.00;;;6.10;90.40;;;6.16;66.33;98234.78;5025456;28;20045;-40
2021/11/17 13:38:52;;;;;;;4.97;3.47;;;6.10;91.10;;;6.18;66.22;98232.03;5023744;28;20061;-40
2021/11/17 13:41:43;;;;;;;4.97;3.13;;;6.10;91.10;;;6.13;66.75;98236.81;5023688;28;20057;-40
2021/11/17 13:44:14;;;;;;;4.50;3.10;;;6.10;91.10;;;6.13;66.89;98232.38;5026108;28;20061;-40
2021/11/17 13:47:07;;;;;;;7.97;4.33;;;6.10;91.50;;;6.11;66.77;98239.59;5028407;28;20276;-40
2021/11/17 13:49:38;;;;;;;4.33;3.13;;;6.00;91.70;;;6.11;66.43;98235.13;5029665;28;20057;-40
2021/11/17 13:52:09;;;;;;;4.67;2.97;;;6.10;91.70;;;6.07;66.99;98238.16;5030044;28;20053;-39
2021/11/17 13:54:37;;;;;;;4.27;3.03;;;6.00;91.90;;;6.19;67.34;98241.66;5027987;28;20058;-39
2021/11/17 13:57:09;;;;;;;3.50;2.03;;;6.20;92.10;;;6.33;67.20;98245.84;5027373;28;20069;-39
2021/11/17 13:59:37;;;;;;;5.23;2.10;;;6.30;91.80;;;6.38;66.93;98241.03;5027025;28;20064;-39
2021/11/17 14:02:07;;;;;;;3.97;2.30;;;6.40;91.10;;;6.39;66.32;98237.44;5029071;28;20147;-40
2021/11/17 14:04:35;;;;;;;3.63;2.00;;;6.50;90.80;;;6.47;66.32;98235.84;5026928;28;20049;-40
2021/11/17 14:07:05;;;;;;;3.63;2.20;;;6.50;90.70;;;6.52;66.83;98235.50;5027686;28;20079;-39
2021/11/17 14:09:33;;;;;;;4.37;2.43;;;6.50;90.50;;;6.56;65.86;98250.19;5026747;28;20049;-40
2021/11/17 14:12:02;;;;;;;3.50;2.03;;;6.60;90.60;;;6.62;66.05;98256.78;5027710;28;20232;-40
2021/11/17 14:14:30;;;;;;;4.87;2.23;;;6.60;90.40;;;6.64;66.47;98254.88;5028149;28;20079;-41
2021/11/17 14:16:58;;;;;;;3.93;2.50;;;6.70;90.20;;;6.69;66.71;98248.25;5028655;28;20057;-40
2021/11/17 14:19:26;;;;;;;5.03;2.67;;;6.70;90.30;;;6.69;65.89;98250.06;5027508;28;20506;-40
2021/11/17 14:21:54;;;;;;;4.40;2.13;;;6.70;90.00;;;6.71;65.80;98242.84;5027958;28;20255;-40
2021/11/17 14:24:23;;;;;;;4.40;2.40;;;6.70;89.60;;;6.73;66.00;98246.19;5026907;28;20120;-40
2021/11/17 14:26:52;;;;;;;5.40;2.50;;;6.70;89.60;;;6.75;66.42;98238.16;5027718;28;20065;-40
2021/11/17 14:29:33;;;;;;;4.27;2.13;;;6.80;90.10;;;6.78;65.84;98251.94;5026070;28;20186;-39
2021/11/17 14:32:15;;;;;;;5.30;2.50;;;6.70;89.90;;;6.78;66.08;98251.13;5027967;28;20096;-39
2021/11/17 14:34:43;;;;;;;3.00;2.20;;;6.70;90.00;;;6.80;66.42;98251.84;5027167;28;20374;-40
2021/11/17 14:37:11;;;;;;;7.10;2.23;;;6.70;89.90;;;6.81;65.84;98253.53;5027121;28;20263;-40
2021/11/17 14:39:43;;;;;;;4.57;2.50;;;6.70;89.90;;;6.84;66.36;98253.28;5027513;28;20057;-40
2021/11/17 14:42:13;;;;;;;3.67;1.87;;;6.80;90.00;;;6.85;66.06;98258.44;5027140;28;20055;-40
2021/11/17 14:44:42;;;;;;;3.33;2.27;;;6.80;90.20;;;6.85;65.80;98252.31;5029111;28;20053;-40
2021/11/17 14:47:11;;;;;;;3.93;2.90;;;6.80;89.80;;;6.89;65.72;98275.75;5026015;28;20052;-39
2021/11/17 14:49:39;;;;;;;3.03;2.20;;;6.80;90.40;;;6.90;66.04;98261.56;5028102;28;20045;-40
2021/11/17 14:52:13;;;;;;;4.40;2.40;;;6.80;90.10;;;6.92;65.75;98264.09;5026386;28;20064;-40
2021/11/17 14:54:42;;;;;;;3.97;2.38;;;6.80;89.90;;;6.98;65.80;98276.84;5027719;28;20370;-40
2021/11/17 14:57:16;;;;;;;4.18;2.42;;;6.90;90.10;;;6.93;65.44;98283.47;5026772;28;20053;-40
2021/11/17 14:59:44;;;;;;;3.57;2.47;;;6.80;89.40;;;6.96;65.67;98288.50;5028207;28;20488;-40
2021/11/17 15:02:12;;;;;;;5.63;3.00;;;6.80;90.20;;;6.96;65.58;98281.41;5028690;28;20072;-40
2021/11/17 15:04:41;;;;;;;5.27;2.93;;;6.80;89.60;;;6.95;65.63;98292.97;5028164;28;20068;-40
2021/11/17 15:07:11;;;;;;;6.40;4.10;;;6.80;89.80;;;6.93;65.80;98288.75;5028186;28;20045;-40
2021/11/17 15:09:39;;;;;;;6.77;4.87;;;6.80;89.30;;;6.95;65.53;98286.84;5027828;28;20063;-41
2021/11/17 15:12:26;;;;;;;6.40;4.60;;;6.80;89.80;;;6.89;64.97;98291.63;5025650;28;20049;-40
2021/11/17 15:14:54;;;;;;;7.23;3.60;;;6.80;89.00;;;6.87;65.95;98298.03;5028044;28;20358;-41